createdAt,value
2022-12-22T00:01:09.410Z,16.20
2022-12-22T00:03:57.648Z,12.07
2022-12-22T00:06:44.434Z,14.80
2022-12-22T00:09:31.239Z,11.50
2022-12-22T00:12:18.271Z,12.48
2022-12-22T00:15:06.149Z,14.88
2022-12-22T00:17:53.717Z,10.57
2022-12-22T00:20:42.157Z,15.07
2022-12-22T00:23:29.360Z,16.40
2022-12-22T00:26:16.188Z,9.85
2022-12-22T00:29:03.836Z,16.08
2022-12-22T00:31:50.197Z,11.73
2022-12-22T00:34:39.689Z,12.85
2022-12-22T00:37:30.629Z,14.77
2022-12-22T00:43:04.089Z,14.15
2022-12-22T00:45:51.130Z,15.68
2022-12-22T00:48:42.233Z,13.93
2022-12-22T00:51:30.979Z,15.20
2022-12-22T00:54:19.722Z,19.98
2022-12-22T00:57:06.781Z,17.02
2022-12-22T00:59:53.181Z,15.30
2022-12-22T01:02:40.838Z,17.00
2022-12-22T01:05:27.632Z,19.83
2022-12-22T01:08:15.050Z,17.48
2022-12-22T01:11:03.019Z,19.17
2022-12-22T01:13:50.576Z,15.93
2022-12-22T01:16:37.006Z,19.23
2022-12-22T01:19:24.566Z,16.15
2022-12-22T01:22:11.081Z,15.38
2022-12-22T01:24:58.160Z,20.45
2022-12-22T01:27:45.879Z,17.48
2022-12-22T01:30:32.708Z,15.88
2022-12-22T01:33:19.134Z,18.33
2022-12-22T01:36:06.164Z,17.40
2022-12-22T01:38:52.563Z,15.05
2022-12-22T01:41:40.255Z,17.08
2022-12-22T01:44:33.811Z,21.35
2022-12-22T01:47:58.731Z,21.52
2022-12-22T01:50:48.096Z,18.13
2022-12-22T01:53:38.829Z,22.42
2022-12-22T01:56:26.159Z,21.63
2022-12-22T01:59:16.026Z,24.35
2022-12-22T02:02:04.775Z,22.95
2022-12-22T02:04:54.416Z,23.35
2022-12-22T02:08:00.487Z,22.75
2022-12-22T02:11:07.715Z,20.45
2022-12-22T02:14:04.540Z,19.73
2022-12-22T02:16:57.199Z,20.13
2022-12-22T02:20:00.439Z,17.75
2022-12-22T02:22:55.688Z,20.55
2022-12-22T02:25:47.314Z,23.35
2022-12-22T02:28:35.529Z,19.80
2022-12-22T02:31:22.144Z,16.23
2022-12-22T02:34:08.776Z,20.10
2022-12-22T02:37:05.299Z,21.15
2022-12-22T02:40:04.531Z,17.63
2022-12-22T02:42:54.303Z,17.88
2022-12-22T02:45:49.484Z,17.50
2022-12-22T02:48:41.159Z,17.75
2022-12-22T02:51:31.642Z,17.60
2022-12-22T02:54:19.041Z,19.83
2022-12-22T02:57:07.041Z,19.88
2022-12-22T02:59:53.220Z,20.67
2022-12-22T03:02:41.663Z,18.27
2022-12-22T03:05:28.427Z,18.80
2022-12-22T03:08:15.458Z,18.45
2022-12-22T03:11:02.002Z,17.50
2022-12-22T03:13:48.933Z,20.63
2022-12-22T03:16:35.325Z,21.15
2022-12-22T03:19:24.053Z,19.75
2022-12-22T03:22:10.352Z,20.80
2022-12-22T03:24:57.447Z,20.17
2022-12-22T03:27:26.709Z,20.48
2022-12-22T03:29:56.470Z,24.55
2022-12-22T03:32:25.796Z,22.17
2022-12-22T03:34:57.137Z,20.40
2022-12-22T03:39:56.073Z,22.73
2022-12-22T03:42:42.544Z,19.33
2022-12-22T03:45:29.792Z,19.85
2022-12-22T03:47:59.045Z,20.90
2022-12-22T03:50:30.166Z,19.10
2022-12-22T03:52:59.597Z,19.00
2022-12-22T03:55:29.597Z,19.45
2022-12-22T03:57:59.357Z,22.27
2022-12-22T04:00:29.395Z,17.75
2022-12-22T04:03:00.350Z,18.40
2022-12-22T04:05:31.568Z,18.75
2022-12-22T04:08:01.055Z,17.42
2022-12-22T04:10:48.278Z,17.95
2022-12-22T04:13:17.600Z,20.27
2022-12-22T04:15:47.661Z,21.38
2022-12-22T04:18:17.108Z,20.05
2022-12-22T04:20:48.199Z,19.98
2022-12-22T04:23:17.526Z,19.85
2022-12-22T04:25:47.772Z,19.05
2022-12-22T04:28:17.086Z,20.95
2022-12-22T04:30:46.952Z,21.35
2022-12-22T04:33:16.481Z,21.65
2022-12-22T04:35:47.990Z,26.40
2022-12-22T04:38:17.311Z,21.05
2022-12-22T04:40:47.123Z,20.52
2022-12-22T04:43:16.679Z,19.83
2022-12-22T04:45:46.726Z,18.75
2022-12-22T04:48:16.031Z,19.33
2022-12-22T04:50:45.788Z,20.95
2022-12-22T04:53:16.533Z,20.00
2022-12-22T04:55:47.985Z,17.88
2022-12-22T04:58:17.708Z,19.45
2022-12-22T05:00:47.863Z,19.15
2022-12-22T05:03:17.362Z,17.08
2022-12-22T05:05:47.086Z,20.20
2022-12-22T05:08:18.078Z,25.70
2022-12-22T05:10:47.897Z,18.02
2022-12-22T05:13:17.180Z,15.20
2022-12-22T05:15:46.835Z,14.25
2022-12-22T05:18:16.147Z,16.42
2022-12-22T05:20:46.408Z,19.77
2022-12-22T05:23:17.190Z,16.40
2022-12-22T05:25:46.861Z,17.70
2022-12-22T05:28:16.137Z,18.60
2022-12-22T05:30:45.906Z,16.27
2022-12-22T05:33:15.195Z,17.15
2022-12-22T05:35:44.829Z,15.35
2022-12-22T05:38:14.109Z,16.42
2022-12-22T05:40:45.213Z,17.90
2022-12-22T05:43:14.648Z,16.27
2022-12-22T05:45:46.518Z,13.10
2022-12-22T05:48:18.901Z,12.63
2022-12-22T05:50:52.590Z,16.00
2022-12-22T05:53:21.958Z,19.83
2022-12-22T05:55:53.968Z,20.55
2022-12-22T05:58:23.377Z,25.15
2022-12-22T06:00:53.160Z,20.63
2022-12-22T06:03:22.535Z,22.48
2022-12-22T06:05:52.518Z,20.42
2022-12-22T06:08:22.481Z,23.60
2022-12-22T06:10:55.536Z,20.15
2022-12-22T06:13:25.214Z,18.08
2022-12-22T06:15:55.351Z,25.08
2022-12-22T06:18:24.935Z,23.33
2022-12-22T06:20:54.885Z,25.48
2022-12-22T06:23:24.771Z,20.08
2022-12-22T06:26:00.779Z,21.53
2022-12-22T06:28:30.571Z,20.88
2022-12-22T06:31:00.321Z,23.98
2022-12-22T06:33:29.615Z,20.88
2022-12-22T06:35:59.857Z,21.33
2022-12-22T06:38:29.836Z,23.27
2022-12-22T06:41:01.331Z,20.20
2022-12-22T06:45:59.034Z,19.33
2022-12-22T06:48:28.552Z,22.45
2022-12-22T06:51:00.552Z,18.70
2022-12-22T06:53:30.025Z,24.33
2022-12-22T06:56:01.511Z,24.47
2022-12-22T06:58:30.897Z,24.35
2022-12-22T07:01:00.680Z,27.05
2022-12-22T07:03:30.155Z,24.90
2022-12-22T07:05:59.891Z,23.88
2022-12-22T07:08:29.179Z,25.58
2022-12-22T07:11:00.611Z,27.48
2022-12-22T07:13:32.918Z,19.40
2022-12-22T07:16:03.745Z,22.92
2022-12-22T07:18:38.212Z,22.03
2022-12-22T07:21:10.782Z,25.85
2022-12-22T07:23:40.574Z,28.52
2022-12-22T07:26:12.746Z,21.88
2022-12-22T07:28:43.471Z,25.05
2022-12-22T07:31:14.920Z,25.85
2022-12-22T07:33:44.381Z,23.25
2022-12-22T07:36:15.767Z,19.33
2022-12-22T07:41:36.676Z,25.90
2022-12-22T07:44:06.751Z,25.13
2022-12-22T07:46:38.622Z,26.52
2022-12-22T07:49:26.241Z,26.85
2022-12-22T07:51:58.754Z,23.42
2022-12-22T07:54:29.011Z,26.50
2022-12-22T07:57:00.515Z,26.55
2022-12-22T07:59:29.870Z,26.45
2022-12-22T08:01:59.659Z,27.45
2022-12-22T08:04:29.230Z,28.67
2022-12-22T08:06:59.125Z,27.45
2022-12-22T08:09:28.642Z,26.02
2022-12-22T08:12:00.059Z,31.00
2022-12-22T08:14:29.499Z,24.75
2022-12-22T08:16:59.160Z,23.13
2022-12-22T08:19:28.991Z,27.23
2022-12-22T08:21:59.583Z,24.30
2022-12-22T08:24:28.982Z,30.63
2022-12-22T08:27:03.866Z,27.33
2022-12-22T08:29:37.953Z,27.00
2022-12-22T08:32:08.072Z,24.20
2022-12-22T08:34:37.382Z,26.45
2022-12-22T08:37:09.831Z,28.15
2022-12-22T08:39:41.258Z,25.10
2022-12-22T08:42:15.226Z,25.50
2022-12-22T08:44:46.204Z,29.60
2022-12-22T08:47:17.379Z,28.63
2022-12-22T08:49:46.921Z,31.08
2022-12-22T08:52:18.825Z,28.45
2022-12-22T08:54:48.870Z,31.80
2022-12-22T08:57:20.065Z,25.80
2022-12-22T09:02:18.915Z,21.90
2022-12-22T09:04:48.330Z,28.25
2022-12-22T09:07:18.683Z,26.30
2022-12-22T09:09:48.186Z,28.75
2022-12-22T09:12:19.588Z,32.20
2022-12-22T09:14:49.022Z,28.90
2022-12-22T09:17:18.671Z,28.27
2022-12-22T09:19:48.125Z,31.92
2022-12-22T09:22:23.348Z,25.23
2022-12-22T09:24:56.322Z,26.88
2022-12-22T09:27:27.632Z,36.53
2022-12-22T09:29:57.355Z,33.78
2022-12-22T09:32:27.480Z,29.10
2022-12-22T09:34:56.863Z,25.38
2022-12-22T09:37:26.533Z,25.20
2022-12-22T09:39:55.781Z,24.63
2022-12-22T09:42:26.880Z,31.25
2022-12-22T09:44:56.253Z,32.28
2022-12-22T09:47:31.117Z,34.07
2022-12-22T09:50:00.936Z,31.40
2022-12-22T09:52:45.935Z,25.03
2022-12-22T09:55:21.466Z,33.40
2022-12-22T09:57:52.916Z,28.52
2022-12-22T10:00:25.219Z,30.75
2022-12-22T10:03:02.088Z,33.83
2022-12-22T10:05:39.909Z,26.05
2022-12-22T10:08:14.054Z,28.05
2022-12-22T10:10:43.530Z,22.63
2022-12-22T10:13:20.004Z,26.83
2022-12-22T10:15:50.102Z,31.52
2022-12-22T10:18:24.671Z,25.48
2022-12-22T10:21:10.582Z,26.52
2022-12-22T10:23:43.075Z,23.10
2022-12-22T10:26:27.960Z,30.77
2022-12-22T10:29:05.355Z,22.02
2022-12-22T10:31:35.730Z,23.33
2022-12-22T10:34:16.889Z,26.88
2022-12-22T10:36:49.755Z,22.98
2022-12-22T10:39:24.350Z,21.60
2022-12-22T10:41:56.746Z,24.35
2022-12-22T10:44:30.471Z,21.85
2022-12-22T10:47:01.817Z,22.58
2022-12-22T10:52:14.938Z,24.70
2022-12-22T10:54:46.125Z,22.02
2022-12-22T10:57:39.333Z,32.30
2022-12-22T11:00:25.661Z,28.10
2022-12-22T11:02:56.341Z,27.73
2022-12-22T11:05:26.434Z,31.65
2022-12-22T11:07:56.841Z,32.20
2022-12-22T11:10:35.244Z,33.70
2022-12-22T11:13:25.910Z,35.45
2022-12-22T11:18:51.754Z,36.55
2022-12-22T11:21:27.747Z,41.20
2022-12-22T11:24:07.916Z,39.17
2022-12-22T11:26:45.534Z,41.10
2022-12-22T11:29:27.688Z,38.15
2022-12-22T11:32:21.785Z,46.83
2022-12-22T11:34:59.546Z,53.03
2022-12-22T11:37:38.196Z,49.42
2022-12-22T11:40:17.734Z,47.55
2022-12-22T11:43:00.906Z,42.88
2022-12-22T11:45:43.546Z,42.13
2022-12-22T11:48:39.608Z,40.47
2022-12-22T11:51:15.120Z,41.63
2022-12-22T11:54:29.187Z,45.97
2022-12-22T11:57:04.015Z,38.38
2022-12-22T11:59:43.843Z,46.72
2022-12-22T12:02:47.112Z,45.42
2022-12-22T12:05:40.190Z,49.63
2022-12-22T12:08:17.895Z,49.38
2022-12-22T12:10:50.920Z,51.20
2022-12-22T12:13:36.764Z,40.65
2022-12-22T12:16:20.475Z,51.08
2022-12-22T12:19:06.285Z,48.47
2022-12-22T12:21:48.890Z,54.22
2022-12-22T12:24:38.555Z,54.35
2022-12-22T12:27:14.864Z,50.90
2022-12-22T12:30:13.345Z,46.92
2022-12-22T12:32:48.167Z,54.60
2022-12-22T12:35:41.672Z,51.15
2022-12-22T12:38:47.895Z,63.47
2022-12-22T12:41:16.180Z,55.75
2022-12-22T12:43:47.744Z,53.95
2022-12-22T12:46:56.189Z,58.67
2022-12-22T12:49:59.708Z,70.82
2022-12-22T12:53:06.692Z,53.00
2022-12-22T12:55:57.917Z,56.10
2022-12-22T12:58:55.813Z,53.25
2022-12-22T13:01:57.757Z,49.05
2022-12-22T13:05:16.376Z,58.55
2022-12-22T13:08:12.483Z,52.42
2022-12-22T13:10:46.948Z,46.15
2022-12-22T13:13:48.742Z,63.25
2022-12-22T13:16:39.973Z,53.40
2022-12-22T13:19:28.419Z,59.95
2022-12-22T13:21:58.279Z,62.10
2022-12-22T13:24:35.424Z,67.93
2022-12-22T13:27:09.282Z,69.75
2022-12-22T13:29:48.075Z,65.82
2022-12-22T13:32:23.678Z,72.05
2022-12-22T13:37:54.240Z,82.95
2022-12-22T13:40:26.066Z,85.45
2022-12-22T13:42:59.324Z,83.93
2022-12-22T13:45:34.810Z,93.07
2022-12-22T13:48:10.081Z,93.85
2022-12-22T13:50:43.393Z,78.88
2022-12-22T13:53:42.097Z,94.28
2022-12-22T13:56:15.042Z,84.68
2022-12-22T13:58:46.904Z,79.57
2022-12-22T14:01:19.303Z,86.13
2022-12-22T14:04:01.332Z,79.70
2022-12-22T14:06:33.853Z,72.82
2022-12-22T14:09:18.703Z,78.63
2022-12-22T14:11:52.477Z,77.82
2022-12-22T14:14:27.223Z,82.55
2022-12-22T14:16:59.711Z,86.03
2022-12-22T14:19:33.488Z,82.85
2022-12-22T14:22:08.605Z,85.28
2022-12-22T14:24:44.473Z,69.18
2022-12-22T14:27:21.625Z,80.85
2022-12-22T14:29:52.788Z,78.25
2022-12-22T14:32:40.537Z,74.72
2022-12-22T14:35:31.429Z,75.53
2022-12-22T14:40:52.622Z,71.55
2022-12-22T14:43:30.431Z,65.38
2022-12-22T14:46:10.259Z,58.28
2022-12-22T14:48:47.161Z,56.13
2022-12-22T14:51:19.186Z,51.22
2022-12-22T14:53:51.474Z,58.60
2022-12-22T14:56:21.441Z,49.65
2022-12-22T14:58:52.000Z,53.63
2022-12-22T15:01:28.616Z,59.03
2022-12-22T15:04:07.232Z,55.70
2022-12-22T15:06:39.851Z,51.20
2022-12-22T15:10:12.685Z,55.95
2022-12-22T15:12:19.575Z,52.88
2022-12-22T15:14:50.321Z,57.70
2022-12-22T15:17:27.060Z,51.97
2022-12-22T15:19:59.597Z,53.60
2022-12-22T15:22:29.128Z,57.60
2022-12-22T15:24:58.776Z,56.28
2022-12-22T15:27:28.221Z,57.63
2022-12-22T15:29:57.996Z,52.20
2022-12-22T15:32:34.470Z,44.15
2022-12-22T15:35:17.528Z,51.35
2022-12-22T15:37:46.966Z,48.47
2022-12-22T15:40:22.155Z,52.47
2022-12-22T15:42:52.072Z,44.47
2022-12-22T15:45:23.517Z,49.63
2022-12-22T15:47:56.218Z,46.70
2022-12-22T15:50:33.530Z,44.13
2022-12-22T15:53:10.223Z,44.97
2022-12-22T15:55:44.749Z,43.58
2022-12-22T15:58:17.171Z,42.35
2022-12-22T16:00:47.157Z,42.65
2022-12-22T16:03:18.464Z,43.65
2022-12-22T16:05:48.493Z,41.10
2022-12-22T16:08:21.371Z,40.33
2022-12-22T16:10:52.068Z,42.17
2022-12-22T16:13:25.756Z,41.65
2022-12-22T16:15:56.187Z,40.97
2022-12-22T16:18:27.431Z,36.97
2022-12-22T16:21:01.039Z,36.78
2022-12-22T16:23:31.039Z,33.55
2022-12-22T16:26:02.621Z,34.72
2022-12-22T16:28:33.495Z,33.67
2022-12-22T16:31:03.448Z,35.22
2022-12-22T16:33:34.276Z,30.58
2022-12-22T16:36:04.888Z,26.13
2022-12-22T16:38:36.124Z,23.00
2022-12-22T16:41:07.774Z,27.90
2022-12-22T16:43:49.085Z,24.48
2022-12-22T16:46:20.969Z,27.08
2022-12-22T16:48:54.223Z,25.15
2022-12-22T16:51:27.035Z,23.00
2022-12-22T16:53:56.721Z,16.60
2022-12-22T16:56:28.766Z,22.50
2022-12-22T16:59:01.110Z,20.10
2022-12-22T17:01:37.243Z,20.30
2022-12-22T17:04:10.113Z,17.05
2022-12-22T17:06:41.141Z,18.70
2022-12-22T17:09:17.328Z,16.58
2022-12-22T17:11:48.026Z,14.50
2022-12-22T17:14:23.578Z,18.45
2022-12-22T17:16:53.729Z,16.63
2022-12-22T17:19:24.489Z,16.50
2022-12-22T17:21:54.895Z,17.52
2022-12-22T17:24:28.120Z,21.48
2022-12-22T17:27:02.642Z,22.10
2022-12-22T17:29:32.352Z,17.15
2022-12-22T17:32:02.746Z,15.07
2022-12-22T17:34:33.775Z,17.38
2022-12-22T17:37:03.583Z,19.48
2022-12-22T17:39:34.222Z,16.17
2022-12-22T17:44:32.864Z,15.27
2022-12-22T17:47:02.675Z,16.15
2022-12-22T17:49:33.642Z,19.50
2022-12-22T17:52:03.692Z,19.48
2022-12-22T17:54:33.107Z,18.77
2022-12-22T17:57:05.326Z,21.23
2022-12-22T17:59:34.813Z,24.23
2022-12-22T18:02:04.675Z,18.45
2022-12-22T18:04:35.949Z,19.58
2022-12-22T18:07:05.707Z,19.17
2022-12-22T18:09:35.467Z,17.60
2022-12-22T18:12:05.743Z,22.03
2022-12-22T18:14:34.995Z,23.80
2022-12-22T18:17:05.465Z,19.75
2022-12-22T18:19:36.203Z,25.02
2022-12-22T18:22:06.140Z,22.10
2022-12-22T18:24:35.646Z,23.52
2022-12-22T18:27:05.396Z,20.13
2022-12-22T18:29:34.853Z,22.20
2022-12-22T18:32:04.526Z,19.38
2022-12-22T18:34:33.999Z,22.75
2022-12-22T18:37:06.957Z,22.50
2022-12-22T18:39:38.001Z,24.58
2022-12-22T18:42:18.560Z,21.50
2022-12-22T18:44:47.869Z,24.10
2022-12-22T18:47:17.792Z,25.65
2022-12-22T18:49:47.885Z,27.55
2022-12-22T18:52:22.936Z,24.98
2022-12-22T18:54:52.407Z,25.83
2022-12-22T18:57:22.204Z,23.23
2022-12-22T18:59:51.781Z,25.50
2022-12-22T19:02:24.930Z,26.45
2022-12-22T19:04:55.628Z,29.00
2022-12-22T19:07:27.604Z,31.35
2022-12-22T19:09:57.120Z,26.60
2022-12-22T19:12:29.450Z,26.98
2022-12-22T19:15:04.898Z,27.98
2022-12-22T19:17:34.696Z,26.88
2022-12-22T19:20:04.127Z,27.05
2022-12-22T19:22:35.667Z,26.90
2022-12-22T19:27:34.642Z,26.52
2022-12-22T19:30:05.128Z,29.50
2022-12-22T19:32:41.761Z,29.92
2022-12-22T19:35:16.285Z,32.58
2022-12-22T19:37:47.909Z,26.17
2022-12-22T19:40:18.992Z,30.20
2022-12-22T19:42:50.770Z,29.95
2022-12-22T19:45:22.327Z,28.63
2022-12-22T19:47:53.547Z,30.05
2022-12-22T19:50:25.917Z,26.13
2022-12-22T19:52:59.059Z,32.55
2022-12-22T19:55:31.900Z,26.60
2022-12-22T19:58:02.530Z,31.80
2022-12-22T20:00:32.195Z,28.25
2022-12-22T20:03:01.999Z,32.45
2022-12-22T20:05:33.577Z,27.73
2022-12-22T20:08:04.856Z,30.13
2022-12-22T20:10:37.080Z,30.85
2022-12-22T20:13:09.096Z,29.13
2022-12-22T20:15:40.227Z,28.70
2022-12-22T20:18:21.660Z,22.88
2022-12-22T20:20:58.809Z,27.95
2022-12-22T20:23:33.272Z,27.10
2022-12-22T20:26:04.403Z,23.95
2022-12-22T20:28:35.934Z,22.55
2022-12-22T20:31:06.394Z,25.75
2022-12-22T20:36:12.251Z,23.45
2022-12-22T20:38:45.237Z,27.92
2022-12-22T20:41:14.757Z,25.35
2022-12-22T20:43:45.876Z,23.08
2022-12-22T20:46:18.017Z,23.90
2022-12-22T20:48:50.755Z,23.27
2022-12-22T20:51:22.370Z,24.45
2022-12-22T20:53:54.909Z,22.90
2022-12-22T20:56:28.717Z,24.77
2022-12-22T20:58:59.680Z,22.20
2022-12-22T21:01:29.880Z,23.73
2022-12-22T21:03:59.995Z,21.23
2022-12-22T21:06:31.145Z,23.25
2022-12-22T21:09:05.567Z,25.13
2022-12-22T21:11:36.324Z,25.02
2022-12-22T21:14:06.247Z,22.27
2022-12-22T21:16:36.419Z,22.83
2022-12-22T21:19:06.871Z,26.30
2022-12-22T21:21:36.997Z,29.37
2022-12-22T21:24:09.584Z,23.02
2022-12-22T21:26:43.313Z,22.70
2022-12-22T21:29:19.441Z,31.98
2022-12-22T21:31:48.758Z,26.85
2022-12-22T21:34:18.804Z,26.25
2022-12-22T21:36:50.431Z,25.20
2022-12-22T21:39:31.528Z,26.67
2022-12-22T21:42:05.168Z,27.00
2022-12-22T21:44:36.577Z,27.23
2022-12-22T21:47:06.347Z,26.15
2022-12-22T21:49:36.313Z,28.95
2022-12-22T21:52:05.963Z,29.40
2022-12-22T21:54:37.414Z,25.38
2022-12-22T21:57:07.135Z,26.05
2022-12-22T21:59:36.782Z,22.27
2022-12-22T22:02:08.136Z,23.60
2022-12-22T22:04:39.257Z,28.85
2022-12-22T22:07:08.555Z,22.98
2022-12-22T22:09:40.031Z,23.20
2022-12-22T22:12:28.615Z,22.95
2022-12-22T22:15:01.088Z,19.65
2022-12-22T22:17:30.407Z,20.90
2022-12-22T22:20:00.174Z,19.42
2022-12-22T22:22:29.447Z,18.00
2022-12-22T22:25:01.216Z,20.30
2022-12-22T22:27:30.531Z,15.88
2022-12-22T22:30:00.366Z,14.65
2022-12-22T22:32:29.811Z,15.43
2022-12-22T22:35:00.866Z,15.57
2022-12-22T22:37:30.382Z,17.63
2022-12-22T22:40:01.511Z,14.18
2022-12-22T22:42:30.829Z,15.27
2022-12-22T22:45:00.538Z,14.50
2022-12-22T22:47:29.943Z,13.10
2022-12-22T22:49:59.654Z,14.18
2022-12-22T22:52:29.140Z,13.93
2022-12-22T22:54:58.821Z,13.13
2022-12-22T22:57:29.615Z,10.50
2022-12-22T22:59:59.364Z,15.02
2022-12-22T23:02:29.071Z,12.23
2022-12-22T23:04:58.916Z,12.52
2022-12-22T23:07:28.272Z,10.63
2022-12-22T23:09:57.955Z,13.20
2022-12-22T23:12:28.873Z,10.85
2022-12-22T23:14:58.880Z,9.90
2022-12-22T23:17:28.156Z,14.80
2022-12-22T23:19:57.814Z,11.93
2022-12-22T23:22:27.256Z,10.63
2022-12-22T23:24:56.922Z,10.18
2022-12-22T23:27:26.252Z,9.63
2022-12-22T23:29:57.963Z,7.73
2022-12-22T23:34:57.131Z,10.02
2022-12-22T23:37:26.679Z,10.15
2022-12-22T23:40:10.771Z,12.88
2022-12-22T23:42:45.938Z,9.55
2022-12-22T23:45:17.227Z,9.90
2022-12-22T23:47:47.965Z,9.05
2022-12-22T23:50:18.142Z,9.10
2022-12-22T23:52:49.428Z,10.30
2022-12-22T23:55:19.664Z,9.65
2022-12-22T23:57:50.658Z,11.43
